Time;durP1;ratioP1;P1;durP2;ratioP2;P2;SDS_P1;SDS_P2;PMS_P1;PMS_P2;Temp;Humidity;BMP_temperature;BMP_pressure;BME280_temperature;BME280_humidity;BME280_pressure;Samples;Min_cycle;Max_cycle;Signal;HPM_P1;HPM_P2
2021/11/23 00:01:48;;;;;;;7.72;0.65;;;;;;;9.20;100.00;103141.56;5121874;27;20400;-32
2021/11/23 00:04:36;;;;;;;3.03;0.40;;;;;;;9.20;100.00;103151.84;5119461;27;20122;-34
2021/11/23 00:07:06;;;;;;;4.40;0.45;;;;;;;9.21;100.00;103145.19;5124154;27;20139;-36
2021/11/23 00:09:33;;;;;;;2.67;0.60;;;;;;;9.21;100.00;103145.19;5123529;27;20065;-34
2021/11/23 00:12:01;;;;;;;3.97;0.65;;;;;;;9.21;100.00;103148.84;5120681;27;20047;-36
2021/11/23 00:14:30;;;;;;;2.15;0.40;;;;;;;9.21;100.00;103146.06;5122577;27;20452;-34
2021/11/23 00:16:57;;;;;;;4.88;0.60;;;;;;;9.24;100.00;103151.16;5124889;27;20412;-43
2021/11/23 00:19:25;;;;;;;5.63;0.50;;;;;;;9.24;100.00;103148.38;5120408;27;20049;-35
2021/11/23 00:21:53;;;;;;;4.25;0.60;;;;;;;9.23;100.00;103141.09;5119729;27;20054;-36
2021/11/23 00:24:22;;;;;;;3.60;0.50;;;;;;;9.26;100.00;103149.00;5126199;27;20035;-34
2021/11/23 00:26:50;;;;;;;5.60;0.70;;;;;;;9.27;100.00;103152.63;5124308;27;20050;-38
2021/11/23 00:29:18;;;;;;;4.68;0.57;;;;;;;9.28;100.00;103146.81;5116962;27;20043;-33
2021/11/23 00:31:46;;;;;;;5.28;0.55;;;;;;;9.29;100.00;103145.75;5121313;27;20493;-40
2021/11/23 00:34:14;;;;;;;10.45;0.85;;;;;;;9.31;100.00;103132.44;5117051;27;20194;-37
2021/11/23 00:36:42;;;;;;;4.13;0.63;;;;;;;9.33;100.00;103135.00;5123305;27;20058;-38
2021/11/23 00:39:09;;;;;;;4.93;0.50;;;;;;;9.35;100.00;103131.97;5127571;27;20051;-39
2021/11/23 00:41:38;;;;;;;4.28;0.70;;;;;;;9.35;100.00;103141.19;5119660;27;20055;-43
2021/11/23 00:44:07;;;;;;;3.80;0.60;;;;;;;9.36;100.00;103131.72;5118525;27;20047;-39
2021/11/23 00:46:35;;;;;;;4.38;0.60;;;;;;;9.39;100.00;103136.00;5124058;27;20279;-33
2021/11/23 00:49:03;;;;;;;5.63;0.80;;;;;;;9.41;100.00;103136.56;5124720;27;20081;-37
2021/11/23 00:51:30;;;;;;;4.55;0.80;;;;;;;9.43;100.00;103138.03;5118512;27;20553;-36
2021/11/23 00:54:01;;;;;;;4.35;0.80;;;;;;;9.45;100.00;103138.66;5120748;27;20490;-38
2021/11/23 00:56:29;;;;;;;9.88;0.70;;;;;;;9.46;100.00;103142.31;5124582;27;20481;-36
2021/11/23 00:58:58;;;;;;;4.13;0.88;;;;;;;9.48;100.00;103143.78;5121450;27;20073;-34
2021/11/23 01:01:26;;;;;;;4.40;0.70;;;;;;;9.49;100.00;103139.03;5118523;27;20481;-37
2021/11/23 01:03:54;;;;;;;6.30;1.00;;;;;;;9.51;100.00;103132.16;5123039;27;20055;-31
2021/11/23 01:06:22;;;;;;;7.55;0.90;;;;;;;9.53;100.00;103134.72;5121831;27;20049;-36
2021/11/23 01:08:50;;;;;;;8.63;1.27;;;;;;;9.55;100.00;103129.75;5119735;27;20057;-32
2021/11/23 01:11:20;;;;;;;6.85;0.73;;;;;;;9.55;100.00;103126.97;5122340;27;20426;-39
2021/11/23 01:13:49;;;;;;;9.80;1.00;;;;;;;9.56;100.00;103123.09;5119248;27;20058;-34
2021/11/23 01:16:18;;;;;;;8.68;1.00;;;;;;;9.58;100.00;103118.97;5123476;27;20050;-32
2021/11/23 01:18:47;;;;;;;8.13;0.93;;;;;;;9.59;100.00;103115.06;5124188;27;20035;-35
2021/11/23 01:21:15;;;;;;;8.63;1.10;;;;;;;9.60;100.00;103119.56;5117730;27;20128;-33
2021/11/23 01:23:43;;;;;;;5.63;0.70;;;;;;;9.58;100.00;103106.97;5117763;27;20032;-32
2021/11/23 01:26:11;;;;;;;4.75;0.70;;;;;;;9.58;100.00;103106.97;5127447;27;20050;-37
2021/11/23 01:28:39;;;;;;;6.60;0.90;;;;;;;9.56;100.00;103104.44;5121904;28;20093;-38
2021/11/23 01:31:07;;;;;;;10.88;1.10;;;;;;;9.54;100.00;103105.75;5114786;27;20070;-35
2021/11/23 01:33:36;;;;;;;9.63;1.05;;;;;;;9.53;100.00;103101.25;5127516;28;20126;-36
2021/11/23 01:36:04;;;;;;;5.57;0.73;;;;;;;9.53;100.00;103104.03;5115462;27;20048;-31
2021/11/23 01:38:32;;;;;;;5.82;1.30;;;;;;;9.54;100.00;103098.25;5123811;28;20078;-34
2021/11/23 01:41:01;;;;;;;8.30;1.00;;;;;;;9.54;100.00;103103.81;5125015;28;20093;-32
2021/11/23 01:43:29;;;;;;;9.23;1.05;;;;;;;9.55;100.00;103101.88;5118149;28;20154;-37
2021/11/23 01:45:57;;;;;;;11.57;1.50;;;;;;;9.55;100.00;103104.66;5118930;27;20421;-39
2021/11/23 01:48:25;;;;;;;9.57;1.38;;;;;;;9.56;100.00;103098.00;5124395;28;20062;-39
2021/11/23 01:50:55;;;;;;;5.80;0.75;;;;;;;9.57;100.00;103105.28;5122224;28;20054;-35
2021/11/23 01:53:23;;;;;;;8.70;0.95;;;;;;;9.58;100.00;103104.19;5116937;27;20042;-35
2021/11/23 01:55:52;;;;;;;6.68;1.40;;;;;;;9.59;100.00;103103.94;5121979;28;20096;-35
2021/11/23 01:58:20;;;;;;;9.07;1.27;;;;;;;9.60;100.00;103107.56;5122665;28;20039;-34
2021/11/23 02:00:48;;;;;;;8.45;1.00;;;;;;;9.61;100.00;103098.97;5120220;28;20051;-38
2021/11/23 02:03:17;;;;;;;8.13;1.20;;;;;;;9.62;100.00;103095.09;5120707;28;20062;-40
2021/11/23 02:05:45;;;;;;;10.30;1.10;;;;;;;9.64;100.00;103095.72;5121809;28;20548;-38
2021/11/23 02:08:14;;;;;;;10.50;1.38;;;;;;;9.65;100.00;103100.19;5120881;28;20047;-34
2021/11/23 02:10:42;;;;;;;10.00;1.27;;;;;;;9.66;100.00;103096.31;5117844;28;20063;-37
2021/11/23 02:13:13;;;;;;;6.22;1.02;;;;;;;9.68;100.00;103096.09;5123316;27;20032;-38
2021/11/23 02:15:41;;;;;;;5.50;1.20;;;;;;;9.67;100.00;103098.03;5124072;28;20493;-29
2021/11/23 02:18:16;;;;;;;5.20;1.00;;;;;;;9.67;100.00;103098.03;5115536;28;20096;-37
2021/11/23 02:20:46;;;;;;;8.68;1.20;;;;;;;9.66;100.00;103096.31;5118308;28;20055;-40
2021/11/23 02:23:14;;;;;;;5.47;0.90;;;;;;;9.66;100.00;103090.75;5125297;28;20039;-36
2021/11/23 02:25:42;;;;;;;10.70;1.30;;;;;;;9.68;100.00;103087.72;5122908;28;20036;-36
2021/11/23 02:28:11;;;;;;;7.65;1.02;;;;;;;9.69;100.00;103089.41;5114687;28;20039;-40
2021/11/23 02:30:44;;;;;;;8.43;1.10;;;;;;;9.71;100.00;103092.81;5119417;28;20066;-38
2021/11/23 02:33:12;;;;;;;10.35;1.40;;;;;;;9.71;100.00;103087.25;5124693;28;20047;-37
2021/11/23 02:35:41;;;;;;;6.72;1.05;;;;;;;9.73;100.00;103093.44;5122211;27;20058;-34
2021/11/23 02:38:10;;;;;;;7.72;1.23;;;;;;;9.73;100.00;103090.66;5130339;27;20047;-39
2021/11/23 02:40:38;;;;;;;9.82;1.40;;;;;;;9.74;100.00;103089.56;5121592;27;20051;-40
2021/11/23 02:43:06;;;;;;;7.57;0.90;;;;;;;9.75;100.00;103087.63;5120534;27;20039;-34
2021/11/23 02:45:34;;;;;;;3.67;0.75;;;;;;;9.75;100.00;103087.63;5126892;27;20567;-36
2021/11/23 02:48:03;;;;;;;6.93;0.88;;;;;;;9.76;100.00;103084.59;5126903;27;20564;-38
2021/11/23 02:50:31;;;;;;;6.60;1.10;;;;;;;9.75;100.00;103082.91;5121304;27;20134;-35
2021/11/23 02:52:59;;;;;;;8.90;0.98;;;;;;;9.76;100.00;103090.19;5122386;27;20524;-38
2021/11/23 02:55:32;;;;;;;8.98;1.25;;;;;;;9.76;100.00;103089.31;5127866;27;20047;-34
2021/11/23 02:58:01;;;;;;;7.35;1.13;;;;;;;9.75;100.00;103082.91;5124651;27;20043;-37
2021/11/23 03:00:30;;;;;;;7.75;1.10;;;;;;;9.77;100.00;103091.03;5120300;27;20093;-35
2021/11/23 03:02:59;;;;;;;6.70;1.02;;;;;;;9.76;100.00;103083.75;5125330;27;20051;-36
2021/11/23 03:05:28;;;;;;;5.43;0.90;;;;;;;9.77;100.00;103080.72;5125121;27;20057;-35
2021/11/23 03:07:57;;;;;;;6.38;0.80;;;;;;;9.75;100.00;103068.97;5122469;27;20054;-32
2021/11/23 03:10:28;;;;;;;5.00;0.90;;;;;;;9.74;100.00;103078.41;5123365;27;20496;-32
2021/11/23 03:12:58;;;;;;;4.65;0.88;;;;;;;9.73;100.00;103079.50;5125504;27;20127;-38
2021/11/23 03:15:27;;;;;;;4.18;0.65;;;;;;;9.72;100.00;103085.31;5122724;27;20051;-35
2021/11/23 03:17:58;;;;;;;5.45;0.90;;;;;;;9.72;100.00;103076.94;5121912;27;20092;-33
2021/11/23 03:20:27;;;;;;;5.43;0.70;;;;;;;9.72;100.00;103076.94;5125429;27;20044;-39
2021/11/23 03:22:56;;;;;;;7.50;1.20;;;;;;;9.70;100.00;103079.97;5125877;27;20047;-35
2021/11/23 03:25:25;;;;;;;5.18;1.10;;;;;;;9.69;100.00;103067.13;5120233;27;20051;-37
2021/11/23 03:27:53;;;;;;;5.72;0.75;;;;;;;9.69;100.00;103072.69;5120798;27;20049;-33
2021/11/23 03:30:24;;;;;;;6.72;1.23;;;;;;;9.69;100.00;103078.28;5128682;27;20044;-31
2021/11/23 03:32:55;;;;;;;5.35;0.70;;;;;;;9.67;100.00;103075.72;5120710;27;20130;-34
2021/11/23 03:35:23;;;;;;;6.30;0.98;;;;;;;9.68;100.00;103071.00;5116468;27;20417;-31
2021/11/23 03:37:52;;;;;;;7.97;0.90;;;;;;;9.68;100.00;103077.41;5123388;27;20051;-35
2021/11/23 03:40:20;;;;;;;9.00;1.02;;;;;;;9.70;100.00;103070.75;5129813;27;20039;-37
2021/11/23 03:42:51;;;;;;;10.93;1.08;;;;;;;9.68;100.00;103073.78;5121320;27;20100;-34
2021/11/23 03:45:19;;;;;;;5.53;0.85;;;;;;;9.68;100.00;103071.84;5118123;27;20084;-32
2021/11/23 03:47:49;;;;;;;4.93;0.60;;;;;;;9.70;100.00;103068.81;5125168;27;20130;-37
2021/11/23 03:50:17;;;;;;;7.40;0.75;;;;;;;9.70;100.00;103068.81;5113787;27;20079;-34
2021/11/23 03:52:47;;;;;;;7.70;1.30;;;;;;;9.70;100.00;103074.41;5125640;27;20035;-34
2021/11/23 03:55:17;;;;;;;5.85;0.73;;;;;;;9.72;100.00;103068.59;5125928;27;20115;-38
2021/11/23 03:57:47;;;;;;;10.75;0.90;;;;;;;9.72;100.00;103072.22;5119709;27;20051;-38
2021/11/23 04:00:18;;;;;;;4.75;0.70;;;;;;;9.73;100.00;103068.34;5121572;27;20043;-33
2021/11/23 04:02:49;;;;;;;4.47;0.63;;;;;;;9.73;100.00;103068.34;5126454;27;20054;-33
2021/11/23 04:05:18;;;;;;;6.30;0.88;;;;;;;9.74;100.00;103061.69;5123067;27;20142;-31
2021/11/23 04:07:46;;;;;;;5.30;0.70;;;;;;;9.74;100.00;103058.03;5119258;27;20047;-37
2021/11/23 04:10:17;;;;;;;6.60;1.13;;;;;;;9.74;100.00;103058.91;5124051;27;20461;-34
2021/11/23 04:12:47;;;;;;;7.93;1.42;;;;;;;9.73;100.00;103057.19;5124417;27;20058;-34
2021/11/23 04:15:16;;;;;;;4.78;0.90;;;;;;;9.73;100.00;103062.78;5121582;27;20537;-38
2021/11/23 04:17:44;;;;;;;6.65;0.75;;;;;;;9.72;100.00;103072.22;5121408;27;20113;-33
2021/11/23 04:20:14;;;;;;;4.63;0.50;;;;;;;9.72;100.00;103063.00;5123851;27;20229;-40
2021/11/23 04:22:42;;;;;;;6.60;0.73;;;;;;;9.71;100.00;103062.16;5122301;27;20047;-36
2021/11/23 04:25:11;;;;;;;11.43;1.10;;;;;;;9.72;100.00;103063.84;5124612;27;20398;-31
2021/11/23 04:27:41;;;;;;;9.00;1.00;;;;;;;9.72;100.00;103063.84;5119445;27;20047;-33
2021/11/23 04:30:12;;;;;;;8.40;1.15;;;;;;;9.71;100.00;103059.38;5119778;27;20117;-42
2021/11/23 04:32:41;;;;;;;4.18;0.85;;;;;;;9.68;100.00;103049.53;5128078;27;20050;-29
2021/11/23 04:35:10;;;;;;;7.80;1.05;;;;;;;9.65;100.00;103047.22;5119679;27;20097;-41
2021/11/23 04:37:40;;;;;;;9.40;0.80;;;;;;;9.65;100.00;103057.53;5127218;27;20083;-32
2021/11/23 04:40:10;;;;;;;10.50;1.20;;;;;;;9.63;100.00;103052.19;5123639;27;20479;-37
2021/11/23 04:42:38;;;;;;;4.47;0.77;;;;;;;9.64;100.00;103055.84;5115699;27;20051;-37
2021/11/23 04:45:10;;;;;;;7.28;0.95;;;;;;;9.65;100.00;103050.03;5121589;27;20506;-34
2021/11/23 04:47:38;;;;;;;5.70;1.13;;;;;;;9.68;100.00;103051.47;5128299;27;20062;-34
2021/11/23 04:50:08;;;;;;;6.80;1.10;;;;;;;9.69;100.00;103050.41;5120539;27;20043;-40
2021/11/23 04:52:36;;;;;;;12.18;1.38;;;;;;;9.72;100.00;103049.91;5115854;27;20094;-36
2021/11/23 04:55:07;;;;;;;5.10;0.85;;;;;;;9.77;100.00;103055.63;5124424;27;20146;-37
2021/11/23 04:57:34;;;;;;;8.77;1.05;;;;;;;9.78;100.00;103051.75;5125840;27;20039;-39
2021/11/23 05:00:04;;;;;;;7.97;1.17;;;;;;;9.80;100.00;103059.84;5118168;27;20041;-36
2021/11/23 05:02:32;;;;;;;8.23;1.00;;;;;;;9.81;100.00;103051.25;5119357;27;20096;-38
2021/11/23 05:05:00;;;;;;;14.25;1.88;;;;;;;9.82;100.00;103050.16;5115343;27;20058;-36
2021/11/23 05:07:28;;;;;;;6.78;1.00;;;;;;;9.83;100.00;103049.06;5119745;27;20051;-35
2021/11/23 05:09:56;;;;;;;9.30;0.95;;;;;;;9.83;100.00;103053.78;5124988;27;20058;-33
2021/11/23 05:12:25;;;;;;;2.67;0.60;;;;;;;9.83;100.00;103056.59;5121551;27;20107;-36
2021/11/23 05:14:52;;;;;;;4.10;0.77;;;;;;;9.81;100.00;103053.19;5117118;27;20397;-34
2021/11/23 05:17:20;;;;;;;6.47;0.88;;;;;;;9.78;100.00;103056.47;5123405;27;20394;-35
2021/11/23 05:19:48;;;;;;;13.65;1.13;;;;;;;9.77;100.00;103064.00;5121490;27;20051;-40
2021/11/23 05:22:17;;;;;;;8.73;1.15;;;;;;;9.77;100.00;103069.56;5119851;27;20047;-39
2021/11/23 05:24:45;;;;;;;5.47;0.93;;;;;;;9.78;100.00;103065.69;5121277;28;20482;-34
2021/11/23 05:27:13;;;;;;;5.22;0.90;;;;;;;9.78;100.00;103065.69;5124203;28;20040;-32
2021/11/23 05:29:42;;;;;;;5.43;0.70;;;;;;;9.79;100.00;103067.38;5118675;28;20047;-30
2021/11/23 05:32:12;;;;;;;8.35;1.25;;;;;;;9.80;100.00;103071.00;5118739;27;20138;-40
2021/11/23 05:34:40;;;;;;;5.68;0.70;;;;;;;9.80;100.00;103063.50;5117533;27;20044;-36
2021/11/23 05:37:07;;;;;;;7.93;0.80;;;;;;;9.82;100.00;103066.88;5118317;27;20521;-31
2021/11/23 05:39:35;;;;;;;7.32;0.80;;;;;;;9.84;100.00;103070.28;5127866;28;20048;-37
2021/11/23 05:42:03;;;;;;;6.72;0.98;;;;;;;9.85;100.00;103060.84;5121574;28;20057;-31
2021/11/23 05:44:32;;;;;;;9.05;1.10;;;;;;;9.86;100.00;103056.97;5114767;27;20134;-38
2021/11/23 05:47:01;;;;;;;11.43;1.55;;;;;;;9.87;100.00;103055.88;5121130;28;20409;-32
2021/11/23 05:49:29;;;;;;;8.52;0.98;;;;;;;9.87;100.00;103053.09;5126024;28;21025;-37
2021/11/23 05:51:58;;;;;;;12.82;1.58;;;;;;;9.89;100.00;103055.63;5118532;28;20047;-35
2021/11/23 05:54:26;;;;;;;7.15;1.00;;;;;;;9.89;100.00;103061.22;5117719;28;20047;-36
2021/11/23 05:56:54;;;;;;;6.40;1.00;;;;;;;9.87;100.00;103053.09;5123188;28;20075;-36
2021/11/23 05:59:22;;;;;;;6.00;0.93;;;;;;;9.86;100.00;103062.53;5123699;28;20091;-33
2021/11/23 06:01:50;;;;;;;7.22;0.80;;;;;;;9.80;100.00;103068.22;5117592;28;20062;-34
2021/11/23 06:04:19;;;;;;;5.65;0.60;;;;;;;9.77;100.00;103072.34;5119769;28;20051;-39
2021/11/23 06:06:48;;;;;;;4.35;1.15;;;;;;;9.74;100.00;103067.25;5124867;28;20401;-35
2021/11/23 06:09:16;;;;;;;2.53;0.60;;;;;;;9.71;100.00;103064.94;5120737;27;20453;-35
2021/11/23 06:11:44;;;;;;;8.02;0.60;;;;;;;9.69;100.00;103064.34;5122145;27;20417;-38
2021/11/23 06:14:12;;;;;;;4.05;0.55;;;;;;;9.66;100.00;103062.88;5126266;27;20044;-35
2021/11/23 06:16:44;;;;;;;4.53;0.65;;;;;;;9.65;100.00;103054.75;5124373;27;20421;-32
2021/11/23 06:19:12;;;;;;;3.40;0.57;;;;;;;9.62;100.00;103063.56;5125237;27;20043;-34
2021/11/23 06:21:42;;;;;;;1.77;0.30;;;;;;;9.63;100.00;103065.28;5122563;27;20453;-37
2021/11/23 06:24:11;;;;;;;4.20;0.60;;;;;;;9.64;100.00;103064.19;5120356;27;20505;-39
2021/11/23 06:26:39;;;;;;;4.70;0.40;;;;;;;9.62;100.00;103066.38;5125080;27;20086;-38
2021/11/23 06:29:07;;;;;;;4.10;0.52;;;;;;;9.62;100.00;103060.78;5127109;27;20061;-36
2021/11/23 06:31:35;;;;;;;1.50;0.40;;;;;;;9.61;100.00;103070.25;5120597;27;20053;-33
2021/11/23 06:34:07;;;;;;;3.88;0.50;;;;;;;9.60;100.00;103076.91;5130327;27;20133;-39
2021/11/23 06:36:35;;;;;;;4.25;0.65;;;;;;;9.56;100.00;103072.91;5119671;27;20039;-35
2021/11/23 06:39:06;;;;;;;4.10;0.50;;;;;;;9.55;100.00;103068.44;5122495;27;20401;-35
2021/11/23 06:41:34;;;;;;;2.22;0.30;;;;;;;9.52;100.00;103066.97;5131085;27;20053;-40
2021/11/23 06:44:03;;;;;;;1.50;0.30;;;;;;;9.48;100.00;103068.53;5124589;27;20062;-35
2021/11/23 06:46:31;;;;;;;1.30;0.35;;;;;;;9.45;100.00;103060.63;5117303;27;20135;-34
2021/11/23 06:49:00;;;;;;;2.63;0.40;;;;;;;9.42;100.00;103066.69;5126134;27;20142;-38
2021/11/23 06:51:28;;;;;;;4.90;0.80;;;;;;;9.38;100.00;103070.19;5129065;27;20043;-37
2021/11/23 06:53:56;;;;;;;2.13;0.40;;;;;;;9.33;100.00;103070.91;5121589;27;20045;-30
2021/11/23 06:56:25;;;;;;;3.60;0.65;;;;;;;9.29;100.00;103080.81;5121321;27;20058;-31
2021/11/23 06:58:55;;;;;;;5.82;0.60;;;;;;;9.25;100.00;103083.22;5126741;27;20040;-30
2021/11/23 07:01:24;;;;;;;10.02;0.80;;;;;;;9.23;100.00;103078.97;5126618;27;20039;-34
2021/11/23 07:03:52;;;;;;;6.95;1.17;;;;;;;9.22;100.00;103082.84;5120670;27;20050;-30
2021/11/23 07:06:20;;;;;;;4.85;0.90;;;;;;;9.22;100.00;103088.41;5122516;27;20122;-36
2021/11/23 07:08:47;;;;;;;5.35;1.13;;;;;;;9.23;100.00;103081.75;5126294;27;20036;-34
2021/11/23 07:11:15;;;;;;;5.13;0.80;;;;;;;9.24;100.00;103086.25;5122637;27;20043;-38
2021/11/23 07:13:46;;;;;;;5.32;0.90;;;;;;;9.26;100.00;103084.06;5121363;27;20060;-38
2021/11/23 07:16:14;;;;;;;3.38;0.60;;;;;;;9.27;100.00;103082.97;5124676;27;20603;-36
2021/11/23 07:18:42;;;;;;;3.42;0.65;;;;;;;9.28;100.00;103093.03;5121578;27;20047;-35
2021/11/23 07:21:09;;;;;;;4.75;0.60;;;;;;;9.28;100.00;103091.09;5119979;27;20512;-35
2021/11/23 07:23:57;;;;;;;7.45;1.05;;;;;;;9.29;100.00;103095.59;5122167;27;20122;-41
2021/11/23 07:26:25;;;;;;;3.38;0.70;;;;;;;9.31;100.00;103092.56;5124744;27;20440;-35
2021/11/23 07:28:54;;;;;;;4.47;0.47;;;;;;;9.32;100.00;103094.28;5122696;27;20057;-34
2021/11/23 07:31:22;;;;;;;4.15;0.95;;;;;;;9.34;100.00;103094.91;5120995;27;20560;-35
2021/11/23 07:33:50;;;;;;;2.78;0.57;;;;;;;9.35;100.00;103099.38;5128983;27;20053;-34
2021/11/23 07:36:19;;;;;;;3.13;0.50;;;;;;;9.39;100.00;103099.75;5118962;27;20466;-32
2021/11/23 07:38:47;;;;;;;3.85;0.50;;;;;;;9.42;100.00;103107.63;5127748;27;20051;-37
2021/11/23 07:41:15;;;;;;;6.32;1.05;;;;;;;9.44;100.00;103111.03;5125514;27;20039;-34
2021/11/23 07:43:43;;;;;;;7.38;0.80;;;;;;;9.46;100.00;103106.06;5117334;27;20059;-34
2021/11/23 07:46:12;;;;;;;6.82;0.73;;;;;;;9.49;100.00;103109.25;5122558;27;20052;-34
2021/11/23 07:48:40;;;;;;;9.75;1.20;;;;;;;9.52;100.00;103117.13;5129077;27;20111;-35
2021/11/23 07:51:08;;;;;;;9.40;1.20;;;;;;;9.56;100.00;103123.09;5121875;27;20108;-35
2021/11/23 07:53:36;;;;;;;6.82;0.75;;;;;;;9.57;100.00;103108.91;5117854;27;20063;-39
2021/11/23 07:56:04;;;;;;;5.30;0.80;;;;;;;9.62;100.00;103127.69;5125144;27;20048;-36
2021/11/23 07:58:32;;;;;;;6.85;0.93;;;;;;;9.61;100.00;103121.25;5126103;27;20509;-31
2021/11/23 08:01:00;;;;;;;8.90;0.95;;;;;;;9.58;100.00;103123.69;5120314;27;20449;-38
2021/11/23 08:03:29;;;;;;;4.97;0.60;;;;;;;9.55;100.00;103129.75;5120126;27;20048;-38
2021/11/23 08:05:57;;;;;;;4.82;0.68;;;;;;;9.52;100.00;103133.84;5119380;27;20044;-32
2021/11/23 08:08:25;;;;;;;4.00;0.60;;;;;;;9.51;100.00;103131.31;5122214;27;20055;-35
2021/11/23 08:10:53;;;;;;;4.18;0.60;;;;;;;9.49;100.00;103136.25;5125346;27;20108;-42
2021/11/23 08:13:20;;;;;;;1.98;0.40;;;;;;;9.45;100.00;103130.31;5121411;27;20042;-39
2021/11/23 08:15:48;;;;;;;2.45;0.30;;;;;;;9.43;100.00;103132.47;5120968;27;20048;-39
2021/11/23 08:18:16;;;;;;;2.92;0.50;;;;;;;9.42;100.00;103132.72;5123632;27;20043;-34
2021/11/23 08:20:46;;;;;;;2.65;0.40;;;;;;;9.41;100.00;103142.16;5122599;27;20064;-33
2021/11/23 08:23:14;;;;;;;2.75;0.43;;;;;;;9.42;100.00;103139.13;5127738;27;20043;-31
2021/11/23 08:25:44;;;;;;;1.98;0.30;;;;;;;9.39;100.00;103139.63;5120901;27;20046;-35
2021/11/23 08:28:11;;;;;;;4.30;0.57;;;;;;;9.40;100.00;103138.50;5119649;27;20043;-35
2021/11/23 08:30:39;;;;;;;5.05;0.60;;;;;;;9.42;100.00;103146.63;5124657;27;20058;-40
2021/11/23 08:33:08;;;;;;;3.00;0.43;;;;;;;9.42;100.00;103143.84;5119352;27;20363;-34
2021/11/23 08:35:36;;;;;;;4.82;0.60;;;;;;;9.44;100.00;103147.25;5117644;27;20039;-34
2021/11/23 08:38:05;;;;;;;2.70;0.47;;;;;;;9.45;100.00;103147.03;5120167;27;20070;-36
2021/11/23 08:40:33;;;;;;;7.40;0.70;;;;;;;9.49;100.00;103150.19;5128766;27;20154;-37
2021/11/23 08:43:01;;;;;;;2.20;0.32;;;;;;;9.51;100.00;103139.66;5122311;27;20133;-33
2021/11/23 08:45:29;;;;;;;4.00;0.63;;;;;;;9.55;100.00;103149.25;5114741;27;20050;-32
2021/11/23 08:47:56;;;;;;;6.15;0.80;;;;;;;9.56;100.00;103150.97;5124065;27;20047;-39
2021/11/23 08:50:25;;;;;;;3.53;0.50;;;;;;;9.57;100.00;103153.50;5126456;27;20047;-35
2021/11/23 08:52:57;;;;;;;7.70;0.75;;;;;;;9.57;100.00;103155.44;5118717;27;20047;-34
2021/11/23 08:55:27;;;;;;;4.10;0.60;;;;;;;9.57;100.00;103166.59;5118925;27;20078;-38
2021/11/23 08:57:55;;;;;;;6.53;0.93;;;;;;;9.56;100.00;103162.13;5124502;27;20047;-34
2021/11/23 09:00:23;;;;;;;7.00;1.05;;;;;;;9.55;100.00;103160.41;5124003;27;20099;-34
2021/11/23 09:02:53;;;;;;;4.85;0.75;;;;;;;9.53;100.00;103162.59;5118232;27;20055;-37
2021/11/23 09:05:23;;;;;;;5.03;0.98;;;;;;;9.59;100.00;103158.84;5120818;27;20043;-36
2021/11/23 09:07:51;;;;;;;6.38;0.95;;;;;;;10.03;100.00;103171.44;5124979;27;20054;-34
2021/11/23 09:10:23;;;;;;;5.65;0.93;;;;;;;10.65;100.00;103160.75;5121335;27;20117;-31
2021/11/23 09:12:57;;;;;;;3.90;0.70;;;;;;;11.32;100.00;103166.72;5117976;27;20043;-32
2021/11/23 09:15:26;;;;;;;4.65;0.60;;;;;;;11.88;100.00;103168.69;5123037;27;20058;-34
2021/11/23 09:17:58;;;;;;;4.85;1.00;;;;;;;12.35;100.00;103160.84;5122782;27;20047;-36
2021/11/23 09:20:33;;;;;;;4.53;1.08;;;;;;;12.50;100.00;103159.38;5120061;27;20043;-34
2021/11/23 09:23:02;;;;;;;2.70;0.50;;;;;;;12.45;100.00;103168.53;5120371;27;20161;-34
2021/11/23 09:25:30;;;;;;;2.83;0.50;;;;;;;12.33;100.00;103162.19;5122880;28;20043;-36
2021/11/23 09:28:00;;;;;;;4.63;0.60;;;;;;;12.21;100.00;103159.44;5119780;28;20051;-33
2021/11/23 09:30:30;;;;;;;4.28;0.60;;;;;;;12.10;100.00;103159.53;5120003;28;20058;-38
2021/11/23 09:32:58;;;;;;;5.13;0.70;;;;;;;11.93;100.00;103173.53;5127305;28;20069;-41
2021/11/23 09:35:27;;;;;;;5.75;1.20;;;;;;;11.78;100.00;103165.69;5118182;28;20043;-29
2021/11/23 09:37:55;;;;;;;1.95;0.45;;;;;;;11.64;100.00;103167.06;5124118;28;20047;-38
2021/11/23 09:40:23;;;;;;;7.47;1.17;;;;;;;11.51;100.00;103161.78;5123818;28;20070;-40
2021/11/23 09:42:53;;;;;;;5.35;0.80;;;;;;;11.51;100.00;103175.75;5116485;28;20054;-37
2021/11/23 09:45:23;;;;;;;6.97;1.08;;;;;;;11.88;100.00;103170.63;5121107;27;20078;-35
2021/11/23 09:47:51;;;;;;;5.55;1.00;;;;;;;12.35;100.00;103168.38;5119180;27;20170;-35
2021/11/23 09:50:19;;;;;;;10.65;1.00;;;;;;;12.63;100.00;103179.47;5124823;27;20444;-36
2021/11/23 09:52:47;;;;;;;6.50;0.80;;;;;;;12.69;100.00;103174.78;5132056;27;20481;-33
2021/11/23 09:55:17;;;;;;;6.47;0.80;;;;;;;12.64;100.00;103171.91;5123293;27;20046;-33
2021/11/23 09:57:45;;;;;;;8.20;1.08;;;;;;;12.59;100.00;103172.66;5119967;27;20481;-39
2021/11/23 10:00:31;;;;;;;8.07;1.05;;;;;;;12.63;100.00;103168.25;5128037;27;20208;-36
2021/11/23 10:03:02;;;;;;;5.57;0.80;;;;;;;12.70;100.00;103170.88;5130262;27;20050;-35
2021/11/23 10:05:32;;;;;;;6.38;1.13;;;;;;;13.00;100.00;103176.06;5122866;27;20071;-35
2021/11/23 10:08:07;;;;;;;4.82;0.77;;;;;;;13.38;100.00;103175.22;5120221;27;20039;-40
2021/11/23 10:10:42;;;;;;;4.32;0.80;;;;;;;13.59;100.00;103176.31;5127501;27;20052;-42
2021/11/23 10:13:10;;;;;;;4.40;0.60;;;;;;;13.70;99.32;103166.91;5130067;27;20070;-35
2021/11/23 10:15:45;;;;;;;3.88;0.73;;;;;;;13.67;97.41;103161.81;5122286;27;20039;-34
2021/11/23 10:18:20;;;;;;;4.43;0.60;;;;;;;13.52;97.03;103165.28;5119968;27;20047;-38
2021/11/23 10:20:50;;;;;;;5.68;1.10;;;;;;;13.35;96.92;103165.38;5127696;27;20464;-37
2021/11/23 10:23:21;;;;;;;2.63;0.55;;;;;;;13.15;97.25;103167.94;5127345;27;20166;-36
2021/11/23 10:25:51;;;;;;;3.08;0.90;;;;;;;12.98;97.19;103167.94;5122118;27;20152;-37
2021/11/23 10:28:21;;;;;;;4.35;0.60;;;;;;;12.82;97.51;103166.00;5122290;27;20048;-31
2021/11/23 10:30:51;;;;;;;4.90;0.88;;;;;;;12.67;97.71;103168.59;5127096;27;20107;-32
2021/11/23 10:33:19;;;;;;;5.47;0.50;;;;;;;12.68;99.09;103167.50;5117625;27;20561;-41
2021/11/23 10:35:51;;;;;;;2.33;0.47;;;;;;;12.90;99.49;103159.13;5128704;27;20054;-34
2021/11/23 10:38:20;;;;;;;4.57;0.70;;;;;;;13.20;98.82;103151.16;5124407;27;20047;-38
2021/11/23 10:40:50;;;;;;;5.85;0.95;;;;;;;13.58;97.88;103155.00;5121352;27;20091;-36
2021/11/23 10:43:19;;;;;;;4.68;0.82;;;;;;;13.97;96.08;103153.72;5125883;27;20044;-37
2021/11/23 10:45:51;;;;;;;5.40;0.70;;;;;;;14.32;94.96;103150.34;5124021;27;20086;-34
2021/11/23 10:48:22;;;;;;;3.10;0.70;;;;;;;14.50;91.53;103153.88;5123317;27;20043;-39
2021/11/23 10:51:01;;;;;;;6.55;0.90;;;;;;;14.37;89.59;103150.41;5123822;27;20290;-41
2021/11/23 10:53:29;;;;;;;4.28;0.60;;;;;;;14.10;88.47;103150.44;5125172;27;20040;-36
2021/11/23 10:56:05;;;;;;;3.00;0.50;;;;;;;13.85;89.25;103150.22;5123819;27;20047;-37
2021/11/23 10:58:32;;;;;;;5.07;0.70;;;;;;;13.79;89.70;103142.84;5125030;27;20426;-37
2021/11/23 11:01:05;;;;;;;2.80;0.50;;;;;;;13.82;89.69;103147.06;5124520;27;20062;-40
2021/11/23 11:03:34;;;;;;;4.25;0.73;;;;;;;13.92;89.89;103141.59;5125689;27;20143;-37
2021/11/23 11:06:03;;;;;;;5.63;0.70;;;;;;;13.98;89.31;103134.91;5122600;27;20444;-32
2021/11/23 11:08:35;;;;;;;4.03;0.60;;;;;;;14.00;88.79;103139.13;5121297;27;20047;-33
2021/11/23 11:11:04;;;;;;;;;;;;;;;13.98;87.33;103134.91;5126866;27;20059;-33
2021/11/23 11:13:33;;;;;;;4.80;0.60;;;;;;;14.03;89.13;103132.97;5126133;27;19919;-40
2021/11/23 11:16:03;;;;;;;2.45;0.50;;;;;;;14.18;88.74;103125.81;5119780;27;20054;-37
2021/11/23 11:18:30;;;;;;;3.92;0.57;;;;;;;14.25;87.58;103140.47;5120991;27;20066;-33
2021/11/23 11:21:01;;;;;;;8.50;0.77;;;;;;;14.35;87.28;103140.56;5128911;27;20401;-43
2021/11/23 11:23:30;;;;;;;6.07;1.38;;;;;;;14.42;86.81;103136.41;5125215;27;20501;-39
2021/11/23 11:26:12;;;;;;;4.43;0.70;;;;;;;14.52;86.52;103137.63;5117109;27;20482;-40
2021/11/23 11:28:46;;;;;;;3.92;0.60;;;;;;;14.59;85.93;103141.03;5122027;27;20043;-34
2021/11/23 11:31:36;;;;;;;3.60;0.60;;;;;;;14.63;85.42;103145.81;5129978;27;20069;-34
2021/11/23 11:34:23;;;;;;;3.08;0.70;;;;;;;14.62;84.51;103135.72;5117362;27;20097;-40